Time;durP1;ratioP1;P1;durP2;ratioP2;P2;SDS_P1;SDS_P2;PMS_P1;PMS_P2;Temp;Humidity;BMP_temperature;BMP_pressure;BME280_temperature;BME280_humidity;BME280_pressure;Samples;Min_cycle;Max_cycle;Signal;HPM_P1;HPM_P2
2021/09/25 00:01:30;;;;;;;10.90;8.20;;;17.90;99.90;;;;;;5034943;28;20514;-47
2021/09/25 00:03:58;;;;;;;10.60;7.30;;;17.90;99.90;;;;;;5035493;28;20464;-48
2021/09/25 00:06:25;;;;;;;15.97;7.57;;;17.90;99.90;;;;;;5035783;28;20444;-47
2021/09/25 00:08:52;;;;;;;11.77;8.03;;;17.90;99.90;;;;;;5036205;28;20894;-50
2021/09/25 00:11:19;;;;;;;11.83;7.90;;;17.90;99.90;;;;;;5035102;28;20477;-46
2021/09/25 00:13:45;;;;;;;12.70;8.90;;;18.00;99.90;;;;;;5034821;28;20849;-47
2021/09/25 00:16:13;;;;;;;13.43;8.37;;;18.00;99.90;;;;;;5035031;28;20514;-48
2021/09/25 00:18:40;;;;;;;9.83;8.20;;;18.00;99.90;;;;;;5035141;28;20455;-48
2021/09/25 00:21:07;;;;;;;12.53;7.43;;;18.00;99.90;;;;;;5034923;28;20436;-49
2021/09/25 00:23:33;;;;;;;14.50;8.90;;;18.00;99.90;;;;;;5035712;28;20793;-50
2021/09/25 00:26:00;;;;;;;11.50;7.93;;;18.00;99.90;;;;;;5035404;28;20475;-49
2021/09/25 00:28:27;;;;;;;12.00;7.40;;;18.00;99.90;;;;;;5035579;28;20459;-46
2021/09/25 00:30:53;;;;;;;10.20;6.90;;;18.00;99.90;;;;;;5035078;28;20908;-54
2021/09/25 00:33:21;;;;;;;12.30;8.40;;;18.00;99.90;;;;;;5038743;28;20514;-52
2021/09/25 00:35:48;;;;;;;14.90;6.70;;;18.00;99.90;;;;;;5038989;28;20828;-52
2021/09/25 00:38:15;;;;;;;10.33;6.93;;;18.00;99.90;;;;;;5039169;28;20439;-50
2021/09/25 00:40:41;;;;;;;11.13;7.67;;;18.00;99.90;;;;;;5038535;28;20478;-51
2021/09/25 00:43:08;;;;;;;8.70;6.30;;;18.00;99.90;;;;;;5038440;28;20518;-52
2021/09/25 00:45:35;;;;;;;11.40;7.20;;;18.00;99.90;;;;;;5038972;28;20863;-54
2021/09/25 00:48:02;;;;;;;10.53;6.83;;;18.00;99.90;;;;;;5038697;28;20459;-51
2021/09/25 00:50:30;;;;;;;9.87;6.73;;;18.10;99.90;;;;;;5038718;28;20514;-49
2021/09/25 00:52:57;;;;;;;12.53;6.73;;;18.10;99.90;;;;;;5039006;28;20451;-53
2021/09/25 00:55:24;;;;;;;8.53;6.90;;;18.00;99.90;;;;;;5038609;28;20452;-50
2021/09/25 00:57:54;;;;;;;10.03;7.37;;;18.00;99.90;;;;;;5038969;28;20807;-51
2021/09/25 01:00:21;;;;;;;13.40;7.20;;;18.10;99.90;;;;;;5038474;28;20451;-52
2021/09/25 01:02:48;;;;;;;10.13;6.60;;;18.10;99.90;;;;;;5039121;28;20455;-53
2021/09/25 01:05:17;;;;;;;10.70;6.67;;;18.10;99.90;;;;;;5038196;28;20487;-52
2021/09/25 01:07:45;;;;;;;9.27;6.87;;;18.10;99.90;;;;;;5038774;28;20547;-50
2021/09/25 01:10:12;;;;;;;11.50;6.93;;;18.10;99.90;;;;;;5038616;28;20452;-49
2021/09/25 01:12:39;;;;;;;11.07;8.53;;;18.10;99.90;;;;;;5038728;28;20850;-51
2021/09/25 01:15:07;;;;;;;7.83;6.13;;;18.10;99.90;;;;;;5038661;28;20483;-49
2021/09/25 01:17:33;;;;;;;9.73;7.63;;;18.10;99.90;;;;;;5038787;28;20464;-50
2021/09/25 01:20:01;;;;;;;12.07;8.77;;;18.10;99.90;;;;;;5039120;28;20835;-47
2021/09/25 01:22:29;;;;;;;10.30;6.43;;;18.10;99.90;;;;;;5038638;28;20484;-50
2021/09/25 01:24:56;;;;;;;9.93;7.60;;;18.10;99.90;;;;;;5038411;28;21095;-52
2021/09/25 01:27:23;;;;;;;8.73;5.93;;;18.10;99.90;;;;;;5038260;28;20452;-52
2021/09/25 01:29:50;;;;;;;9.40;6.90;;;18.10;99.90;;;;;;5038818;28;20452;-46
2021/09/25 01:32:17;;;;;;;10.43;6.90;;;18.10;99.90;;;;;;5038785;28;20444;-48
2021/09/25 01:34:45;;;;;;;9.13;7.20;;;18.10;99.90;;;;;;5038266;28;20460;-46
2021/09/25 01:37:12;;;;;;;10.20;7.37;;;18.10;99.90;;;;;;5038202;28;20933;-50
2021/09/25 01:39:40;;;;;;;9.70;7.47;;;18.10;99.90;;;;;;5038177;28;20452;-46
2021/09/25 01:42:07;;;;;;;13.23;8.67;;;18.10;99.90;;;;;;5037587;28;20456;-53
2021/09/25 01:44:34;;;;;;;10.67;7.50;;;18.10;99.90;;;;;;5037822;28;20849;-53
2021/09/25 01:47:01;;;;;;;9.10;6.90;;;18.10;99.90;;;;;;5037590;28;20440;-49
2021/09/25 01:49:29;;;;;;;11.27;7.70;;;18.10;99.90;;;;;;5037556;28;20835;-52
2021/09/25 01:51:55;;;;;;;12.03;9.00;;;18.10;99.90;;;;;;5037497;28;20521;-49
2021/09/25 01:54:22;;;;;;;11.93;7.87;;;18.10;99.90;;;;;;5037170;28;20453;-47
2021/09/25 01:56:50;;;;;;;11.10;7.23;;;18.10;99.90;;;;;;5037877;28;20449;-51
2021/09/25 01:59:17;;;;;;;9.13;6.70;;;18.10;99.90;;;;;;5037771;28;20448;-49
2021/09/25 02:01:43;;;;;;;12.30;7.67;;;18.10;99.90;;;;;;5037897;28;20460;-50
2021/09/25 02:04:10;;;;;;;9.97;6.80;;;18.10;99.90;;;;;;5037467;28;20449;-50
2021/09/25 02:06:37;;;;;;;12.03;8.03;;;18.10;99.90;;;;;;5037332;28;20513;-54
2021/09/25 02:09:03;;;;;;;13.10;6.50;;;18.10;99.90;;;;;;5037408;28;20581;-50
2021/09/25 02:11:31;;;;;;;9.27;7.37;;;18.10;99.90;;;;;;5037264;28;20495;-46
2021/09/25 02:13:59;;;;;;;12.93;7.03;;;18.10;99.90;;;;;;5037381;28;20991;-51
2021/09/25 02:16:26;;;;;;;10.07;7.03;;;18.20;99.90;;;;;;5037035;28;20448;-47
2021/09/25 02:18:53;;;;;;;10.47;7.33;;;18.20;99.90;;;;;;5037437;28;20487;-53
2021/09/25 02:21:19;;;;;;;10.80;6.93;;;18.20;99.90;;;;;;5037279;28;20478;-49
2021/09/25 02:23:46;;;;;;;14.07;7.93;;;18.20;99.90;;;;;;5036991;28;20786;-52
2021/09/25 02:26:13;;;;;;;10.00;6.83;;;18.20;99.90;;;;;;5036653;28;20999;-51
2021/09/25 02:28:39;;;;;;;10.27;6.40;;;18.20;99.90;;;;;;5036947;28;20514;-53
2021/09/25 02:31:07;;;;;;;10.50;7.73;;;18.20;99.90;;;;;;5036883;28;20483;-51
2021/09/25 02:33:34;;;;;;;11.13;7.10;;;18.20;99.90;;;;;;5036543;28;20460;-50
2021/09/25 02:36:01;;;;;;;11.97;6.97;;;18.20;99.90;;;;;;5037034;28;20451;-47
2021/09/25 02:38:28;;;;;;;9.40;7.67;;;18.20;99.90;;;;;;5037367;28;20510;-47
2021/09/25 02:40:54;;;;;;;9.47;6.90;;;18.20;99.90;;;;;;5036874;28;20444;-51
2021/09/25 02:43:21;;;;;;;10.97;7.17;;;18.10;99.90;;;;;;5036831;28;20490;-46
2021/09/25 02:45:48;;;;;;;10.03;6.10;;;18.10;99.90;;;;;;5037246;28;20476;-51
2021/09/25 02:48:16;;;;;;;7.43;6.27;;;18.10;99.90;;;;;;5036762;28;20514;-46
2021/09/25 02:50:43;;;;;;;9.47;5.97;;;18.10;99.90;;;;;;5036991;28;20506;-48
2021/09/25 02:53:09;;;;;;;12.57;6.67;;;18.10;99.90;;;;;;5037218;28;20828;-47
2021/09/25 02:55:36;;;;;;;10.60;7.80;;;18.20;99.90;;;;;;5036538;28;20503;-48
2021/09/25 02:58:03;;;;;;;8.07;6.50;;;18.20;99.90;;;;;;5036840;28;20448;-48
2021/09/25 03:00:30;;;;;;;10.60;7.73;;;18.10;99.90;;;;;;5036813;28;20510;-46
2021/09/25 03:02:57;;;;;;;9.10;7.50;;;18.10;99.90;;;;;;5036770;28;20460;-53
2021/09/25 03:05:25;;;;;;;10.57;7.27;;;18.10;99.90;;;;;;5036653;28;20527;-53
2021/09/25 03:07:52;;;;;;;11.47;7.17;;;18.10;99.90;;;;;;5036206;28;20471;-50
2021/09/25 03:10:18;;;;;;;11.50;7.20;;;18.10;99.90;;;;;;5035995;28;20502;-53
2021/09/25 03:12:45;;;;;;;8.57;5.83;;;18.10;99.90;;;;;;5035845;28;20448;-53
2021/09/25 03:15:12;;;;;;;9.43;6.77;;;18.10;99.90;;;;;;5035835;28;20479;-51
2021/09/25 03:17:39;;;;;;;10.93;6.33;;;18.10;99.90;;;;;;5036215;28;20455;-51
2021/09/25 03:20:07;;;;;;;10.97;5.90;;;18.10;99.90;;;;;;5036418;28;20502;-48
2021/09/25 03:22:36;;;;;;;15.20;6.67;;;18.00;99.90;;;;;;5035997;28;20920;-52
2021/09/25 03:25:07;;;;;;;10.50;5.70;;;18.00;99.90;;;;;;5035817;28;20531;-53
2021/09/25 03:27:34;;;;;;;6.80;5.20;;;18.00;99.90;;;;;;5035743;28;20464;-48
2021/09/25 03:30:01;;;;;;;8.93;7.33;;;18.00;99.90;;;;;;5035663;28;20494;-51
2021/09/25 03:32:27;;;;;;;9.60;7.13;;;18.00;99.90;;;;;;5035546;28;20459;-51
2021/09/25 03:34:54;;;;;;;9.00;6.97;;;17.90;99.90;;;;;;5035689;28;20510;-51
2021/09/25 03:37:21;;;;;;;10.17;7.50;;;17.90;99.90;;;;;;5036267;28;20447;-49
2021/09/25 03:39:49;;;;;;;8.10;5.43;;;17.90;99.90;;;;;;5035514;28;20456;-50
2021/09/25 03:42:15;;;;;;;8.27;6.30;;;18.00;99.90;;;;;;5035822;28;20487;-54
2021/09/25 03:44:43;;;;;;;8.57;6.83;;;18.00;99.90;;;;;;5035748;28;20948;-50
2021/09/25 03:47:10;;;;;;;8.23;6.30;;;18.00;99.90;;;;;;5035812;28;20523;-48
2021/09/25 03:49:37;;;;;;;9.07;6.93;;;18.00;99.90;;;;;;5035676;28;20452;-49
2021/09/25 03:52:04;;;;;;;8.80;5.97;;;18.00;99.90;;;;;;5035605;28;20448;-53
2021/09/25 03:54:30;;;;;;;10.50;6.03;;;18.00;99.90;;;;;;5035519;28;20440;-53
2021/09/25 03:56:59;;;;;;;8.10;5.80;;;18.00;99.90;;;;;;5035579;28;20755;-47
2021/09/25 03:59:25;;;;;;;11.53;5.30;;;18.00;99.90;;;;;;5035368;28;20444;-47
2021/09/25 04:01:52;;;;;;;8.57;6.37;;;18.00;99.90;;;;;;5035651;28;20530;-46
2021/09/25 04:04:18;;;;;;;8.93;5.77;;;18.00;99.90;;;;;;5035456;28;20522;-53
2021/09/25 04:06:48;;;;;;;7.77;6.27;;;18.00;99.90;;;;;;5039073;28;20476;-48
2021/09/25 04:09:15;;;;;;;8.47;5.83;;;18.00;99.90;;;;;;5039902;28;20509;-48
2021/09/25 04:11:48;;;;;;;8.33;5.90;;;18.00;99.90;;;;;;5040136;28;20440;-48
2021/09/25 04:14:17;;;;;;;9.30;6.57;;;18.00;99.90;;;;;;5040003;28;20490;-55
2021/09/25 04:16:43;;;;;;;8.13;6.87;;;18.00;99.90;;;;;;5040068;28;20950;-53
2021/09/25 04:19:10;;;;;;;9.10;6.33;;;18.00;99.90;;;;;;5039075;28;20502;-49
2021/09/25 04:21:36;;;;;;;10.93;5.90;;;18.00;99.90;;;;;;5038999;28;20452;-50
2021/09/25 04:24:03;;;;;;;11.13;7.07;;;17.90;99.90;;;;;;5039355;28;20443;-51
2021/09/25 04:26:30;;;;;;;11.43;6.87;;;17.90;99.90;;;;;;5039400;28;20556;-48
2021/09/25 04:28:57;;;;;;;9.17;7.33;;;17.80;99.90;;;;;;5038911;28;20502;-52
2021/09/25 04:31:25;;;;;;;11.20;7.17;;;17.80;99.90;;;;;;5039412;28;20448;-53
2021/09/25 04:33:51;;;;;;;12.73;8.13;;;17.70;99.90;;;;;;5038918;28;20452;-51
2021/09/25 04:36:18;;;;;;;12.40;8.23;;;17.60;99.90;;;;;;5039092;28;20444;-53
2021/09/25 04:38:45;;;;;;;8.87;7.10;;;17.60;99.90;;;;;;5038530;28;21117;-52
2021/09/25 04:41:12;;;;;;;11.33;7.50;;;17.50;99.90;;;;;;5038819;28;20474;-53
2021/09/25 04:43:38;;;;;;;8.30;6.80;;;17.50;99.90;;;;;;5038932;28;20521;-52
2021/09/25 04:46:05;;;;;;;11.33;7.53;;;17.50;99.90;;;;;;5038754;28;20480;-47
2021/09/25 04:48:36;;;;;;;11.53;8.03;;;17.40;99.90;;;;;;5039173;28;20925;-54
2021/09/25 04:51:03;;;;;;;11.13;7.50;;;17.40;99.90;;;;;;5039190;28;20424;-48
2021/09/25 04:53:30;;;;;;;10.20;7.30;;;17.30;99.90;;;;;;5039170;28;20467;-49
2021/09/25 04:55:57;;;;;;;17.60;7.50;;;17.30;99.90;;;;;;5038917;28;20456;-51
2021/09/25 04:58:28;;;;;;;11.03;7.97;;;17.30;99.90;;;;;;5038683;28;20448;-51
2021/09/25 05:00:55;;;;;;;12.73;6.60;;;17.20;99.90;;;;;;5038814;28;20432;-49
2021/09/25 05:03:21;;;;;;;14.53;8.07;;;17.10;99.90;;;;;;5038863;28;20460;-49
2021/09/25 05:05:50;;;;;;;12.47;7.30;;;17.00;99.90;;;;;;5038848;28;20475;-53
2021/09/25 05:08:18;;;;;;;14.00;9.23;;;17.00;99.90;;;;;;5038725;28;20514;-53
2021/09/25 05:10:44;;;;;;;14.53;8.40;;;16.90;99.90;;;;;;5038614;28;20844;-51
2021/09/25 05:13:11;;;;;;;11.03;7.70;;;17.00;99.90;;;;;;5039265;28;20444;-50
2021/09/25 05:15:38;;;;;;;14.67;7.83;;;17.00;99.90;;;;;;5038731;28;20774;-48
2021/09/25 05:18:04;;;;;;;11.53;7.90;;;17.00;99.90;;;;;;5038463;28;20456;-53
2021/09/25 05:20:31;;;;;;;11.73;8.47;;;17.00;99.90;;;;;;5038542;28;20456;-46
2021/09/25 05:22:59;;;;;;;11.87;7.73;;;17.00;99.90;;;;;;5038832;28;20494;-49
2021/09/25 05:25:26;;;;;;;11.27;7.60;;;17.00;99.90;;;;;;5038865;28;20897;-47
2021/09/25 05:27:52;;;;;;;10.90;6.67;;;17.00;99.90;;;;;;5038295;28;20453;-46
2021/09/25 05:30:19;;;;;;;9.30;7.40;;;17.00;99.90;;;;;;5039310;28;20478;-47
2021/09/25 05:32:46;;;;;;;10.47;7.43;;;17.00;99.90;;;;;;5038977;28;20510;-50
2021/09/25 05:35:13;;;;;;;18.30;7.63;;;17.00;99.90;;;;;;5037797;28;20448;-53
2021/09/25 05:37:40;;;;;;;11.40;7.40;;;17.00;99.90;;;;;;5038264;28;20461;-52
2021/09/25 05:40:10;;;;;;;15.10;7.17;;;17.00;99.90;;;;;;5037947;28;20448;-48
2021/09/25 05:42:36;;;;;;;9.23;6.87;;;17.00;99.90;;;;;;5038235;28;20454;-54
2021/09/25 05:45:03;;;;;;;10.70;7.33;;;17.10;99.90;;;;;;5037946;28;20478;-51
2021/09/25 05:47:30;;;;;;;11.40;7.50;;;17.10;99.90;;;;;;5037621;28;20855;-53
2021/09/25 05:49:57;;;;;;;22.20;7.43;;;17.10;99.90;;;;;;5038417;28;20444;-50
2021/09/25 05:52:26;;;;;;;11.00;7.40;;;17.20;99.90;;;;;;5038336;28;20766;-53
2021/09/25 05:54:53;;;;;;;11.20;6.87;;;17.20;99.90;;;;;;5037395;28;20517;-53
2021/09/25 05:57:21;;;;;;;11.73;7.00;;;17.20;99.90;;;;;;5037028;28;20444;-52
2021/09/25 05:59:48;;;;;;;10.80;7.43;;;17.20;99.90;;;;;;5037093;28;20510;-53
2021/09/25 06:02:14;;;;;;;11.27;7.90;;;17.30;99.90;;;;;;5037231;28;20478;-51
2021/09/25 06:04:41;;;;;;;16.10;6.70;;;17.30;99.90;;;;;;5037294;28;20509;-51
2021/09/25 06:07:11;;;;;;;9.93;6.83;;;17.30;99.90;;;;;;5037406;28;20538;-53
2021/09/25 06:09:37;;;;;;;9.57;7.97;;;17.40;99.90;;;;;;5036950;28;20475;-54
2021/09/25 06:12:06;;;;;;;14.07;8.10;;;17.40;99.90;;;;;;5036954;28;20519;-54
2021/09/25 06:14:34;;;;;;;8.40;6.90;;;17.40;99.90;;;;;;5036439;28;21000;-53
2021/09/25 06:17:00;;;;;;;10.27;6.87;;;17.40;99.90;;;;;;5036493;28;20444;-54
2021/09/25 06:19:27;;;;;;;10.27;7.17;;;17.40;99.90;;;;;;5036601;28;20456;-53
2021/09/25 06:21:54;;;;;;;10.73;6.50;;;17.50;99.90;;;;;;5036540;28;20452;-52
2021/09/25 06:24:21;;;;;;;12.87;7.70;;;17.50;99.90;;;;;;5036763;28;20510;-49
2021/09/25 06:26:47;;;;;;;11.50;7.80;;;17.60;99.90;;;;;;5036256;28;20987;-51
2021/09/25 06:29:14;;;;;;;8.67;6.37;;;17.70;99.90;;;;;;5035923;28;20540;-52
2021/09/25 06:31:42;;;;;;;12.13;7.87;;;17.70;99.90;;;;;;5036435;28;20517;-52
2021/09/25 06:34:09;;;;;;;9.53;6.50;;;17.80;99.90;;;;;;5036391;28;20464;-55
2021/09/25 06:36:40;;;;;;;11.60;6.23;;;17.80;99.90;;;;;;5037257;28;20506;-55
2021/09/25 06:39:07;;;;;;;14.47;9.23;;;17.80;99.90;;;;;;5036452;28;21000;-53
2021/09/25 06:41:34;;;;;;;13.50;7.17;;;17.80;99.90;;;;;;5036891;28;20836;-52
2021/09/25 06:44:00;;;;;;;12.93;6.63;;;17.80;99.90;;;;;;5036254;28;20456;-54
2021/09/25 06:46:27;;;;;;;7.30;5.87;;;17.80;99.90;;;;;;5035942;28;20565;-55
2021/09/25 06:48:55;;;;;;;10.70;7.67;;;17.80;99.90;;;;;;5036440;28;20498;-54
2021/09/25 06:51:22;;;;;;;11.83;7.47;;;17.80;99.90;;;;;;5035861;28;20780;-54
2021/09/25 06:53:48;;;;;;;10.03;6.43;;;17.80;99.90;;;;;;5036230;28;20745;-51
2021/09/25 06:56:15;;;;;;;9.87;7.17;;;17.90;99.90;;;;;;5035967;28;20474;-56
2021/09/25 06:58:42;;;;;;;9.43;6.70;;;18.00;99.90;;;;;;5036041;28;20514;-51
2021/09/25 07:01:09;;;;;;;8.53;6.93;;;18.00;99.90;;;;;;5036266;28;20464;-56
2021/09/25 07:03:35;;;;;;;12.67;7.97;;;18.00;99.90;;;;;;5036237;28;20502;-50
2021/09/25 07:06:03;;;;;;;8.03;6.53;;;18.00;99.90;;;;;;5035990;28;20445;-52
2021/09/25 07:08:30;;;;;;;8.27;6.17;;;18.00;99.90;;;;;;5035785;28;20448;-52
2021/09/25 07:10:57;;;;;;;13.50;8.07;;;17.90;99.90;;;;;;5035847;28;20848;-56
2021/09/25 07:13:23;;;;;;;11.67;7.73;;;17.80;99.90;;;;;;5035384;28;20479;-51
2021/09/25 07:15:51;;;;;;;11.70;7.60;;;17.80;99.90;;;;;;5035465;28;20494;-55
2021/09/25 07:18:18;;;;;;;9.97;7.27;;;17.90;99.90;;;;;;5035468;28;20820;-54
2021/09/25 07:20:44;;;;;;;9.20;7.00;;;18.00;99.90;;;;;;5035306;28;20451;-53
2021/09/25 07:23:13;;;;;;;11.00;7.83;;;18.00;99.90;;;;;;5035404;28;20542;-51
2021/09/25 07:25:40;;;;;;;11.50;7.67;;;18.00;99.90;;;;;;5035664;28;20521;-53
2021/09/25 07:28:08;;;;;;;10.40;7.23;;;18.10;99.90;;;;;;5035219;28;20480;-51
2021/09/25 07:30:37;;;;;;;9.33;7.00;;;18.10;99.90;;;;;;5035568;28;20444;-47
2021/09/25 07:33:04;;;;;;;12.33;7.23;;;18.30;99.90;;;;;;5035936;28;20489;-53
2021/09/25 07:35:31;;;;;;;12.13;7.97;;;18.40;99.90;;;;;;5035278;28;20816;-54
2021/09/25 07:37:58;;;;;;;13.53;8.13;;;18.50;99.90;;;;;;5035276;28;20538;-53
2021/09/25 07:40:26;;;;;;;10.10;6.90;;;18.60;99.90;;;;;;5034653;28;20484;-52
2021/09/25 07:42:52;;;;;;;9.73;6.70;;;18.70;99.90;;;;;;5035096;28;20766;-56
2021/09/25 07:45:19;;;;;;;11.63;8.07;;;18.80;99.90;;;;;;5034773;28;20991;-55
2021/09/25 07:47:46;;;;;;;10.73;7.37;;;18.90;99.90;;;;;;5034999;28;20851;-51
2021/09/25 07:50:13;;;;;;;10.33;7.27;;;18.90;99.90;;;;;;5034780;28;20514;-56
2021/09/25 07:52:41;;;;;;;9.13;6.77;;;18.90;99.90;;;;;;5034074;28;20539;-53
2021/09/25 07:55:09;;;;;;;6.77;6.07;;;19.00;99.90;;;;;;5035178;28;20558;-51
2021/09/25 07:57:38;;;;;;;13.60;7.67;;;18.90;99.90;;;;;;5034707;28;20448;-55
2021/09/25 08:00:07;;;;;;;10.70;7.63;;;18.90;99.90;;;;;;5034740;28;20448;-50
2021/09/25 08:02:34;;;;;;;11.23;7.60;;;18.90;99.90;;;;;;5034609;28;20755;-53
2021/09/25 08:05:01;;;;;;;13.23;7.50;;;18.80;99.90;;;;;;5034788;28;20448;-48
2021/09/25 08:07:28;;;;;;;7.60;6.80;;;18.80;99.90;;;;;;5034920;28;20551;-50
2021/09/25 08:09:55;;;;;;;9.90;7.77;;;18.90;99.90;;;;;;5034798;28;20444;-50
2021/09/25 08:12:21;;;;;;;9.13;7.90;;;18.90;99.90;;;;;;5034888;28;20881;-49
2021/09/25 08:14:49;;;;;;;7.47;6.13;;;19.10;99.90;;;;;;5034523;28;20509;-55
2021/09/25 08:17:16;;;;;;;10.47;7.63;;;19.00;99.90;;;;;;5035027;28;20463;-51
2021/09/25 08:19:43;;;;;;;10.40;7.57;;;19.00;99.90;;;;;;5034655;28;20459;-54
2021/09/25 08:22:10;;;;;;;10.13;7.23;;;19.00;99.90;;;;;;5034381;28;20506;-51
2021/09/25 08:24:36;;;;;;;8.50;7.37;;;19.00;99.90;;;;;;5035089;28;20517;-48
2021/09/25 08:27:03;;;;;;;11.20;8.37;;;19.10;99.90;;;;;;5035014;28;20529;-55
2021/09/25 08:29:30;;;;;;;11.10;8.30;;;19.10;99.90;;;;;;5034660;28;20479;-48
2021/09/25 08:31:58;;;;;;;9.73;6.70;;;19.10;99.90;;;;;;5034399;28;20444;-53
2021/09/25 08:34:24;;;;;;;10.27;7.20;;;19.10;99.90;;;;;;5034385;28;20460;-50
2021/09/25 08:36:51;;;;;;;8.57;7.47;;;19.10;99.90;;;;;;5034763;28;20444;-54
2021/09/25 08:39:18;;;;;;;11.87;7.97;;;19.10;99.90;;;;;;5034425;28;20440;-52
2021/09/25 08:41:45;;;;;;;8.73;6.50;;;19.00;99.90;;;;;;5034666;28;20448;-54
2021/09/25 08:44:12;;;;;;;12.10;8.30;;;19.10;99.90;;;;;;5034053;28;20464;-50
2021/09/25 08:46:39;;;;;;;9.13;6.93;;;19.00;99.90;;;;;;5034122;28;20514;-53
2021/09/25 08:49:07;;;;;;;10.40;7.17;;;19.10;99.90;;;;;;5034301;28;20448;-52
2021/09/25 08:51:35;;;;;;;10.17;7.60;;;19.00;99.90;;;;;;5034103;28;20526;-51
2021/09/25 08:54:04;;;;;;;9.67;8.17;;;19.00;99.90;;;;;;5037698;28;20509;-53
2021/09/25 08:56:31;;;;;;;9.60;8.10;;;18.90;99.90;;;;;;5037941;28;20510;-55
2021/09/25 08:58:59;;;;;;;9.07;7.60;;;18.80;99.90;;;;;;5038018;28;20478;-54
2021/09/25 09:01:28;;;;;;;11.40;8.23;;;18.70;99.90;;;;;;5038029;28;20479;-51
2021/09/25 09:03:57;;;;;;;12.10;8.50;;;18.70;99.90;;;;;;5038260;28;20450;-54
2021/09/25 09:06:27;;;;;;;9.13;7.13;;;18.80;99.90;;;;;;5038040;28;20507;-51
2021/09/25 09:08:55;;;;;;;11.03;7.47;;;18.90;99.90;;;;;;5037932;28;20549;-53
2021/09/25 09:11:24;;;;;;;10.83;7.27;;;18.90;99.90;;;;;;5037967;28;20514;-56
2021/09/25 09:13:53;;;;;;;10.27;8.53;;;19.00;99.90;;;;;;5037816;28;20490;-52
2021/09/25 09:16:21;;;;;;;15.23;8.33;;;19.00;99.90;;;;;;5037843;28;20448;-52
2021/09/25 09:18:49;;;;;;;8.40;7.30;;;19.00;99.90;;;;;;5037801;28;20490;-53
2021/09/25 09:21:17;;;;;;;10.63;7.97;;;19.10;99.90;;;;;;5037821;28;20506;-53
2021/09/25 09:23:50;;;;;;;12.80;8.47;;;19.10;99.90;;;;;;5037840;28;20444;-53
2021/09/25 09:26:18;;;;;;;9.30;8.13;;;19.10;99.90;;;;;;5037468;28;20882;-54
2021/09/25 09:28:48;;;;;;;11.57;7.43;;;19.10;99.90;;;;;;5037017;28;20976;-51
2021/09/25 09:31:19;;;;;;;9.00;7.30;;;19.10;99.90;;;;;;5037139;28;20530;-53
2021/09/25 09:33:47;;;;;;;13.37;8.13;;;19.10;99.90;;;;;;5037150;28;20449;-51
2021/09/25 09:36:23;;;;;;;15.10;7.90;;;19.10;99.90;;;;;;5037454;28;20452;-54
2021/09/25 09:38:54;;;;;;;10.13;8.10;;;19.10;99.90;;;;;;5037165;28;20466;-52
2021/09/25 09:41:24;;;;;;;16.13;8.97;;;19.10;99.90;;;;;;5037423;28;20539;-49
2021/09/25 09:43:53;;;;;;;9.60;8.20;;;19.10;99.90;;;;;;5037231;28;20428;-51
2021/09/25 09:46:26;;;;;;;9.97;8.27;;;19.10;99.90;;;;;;5036944;28;20478;-53
2021/09/25 09:48:54;;;;;;;14.27;9.23;;;19.10;99.90;;;;;;5037260;28;20840;-52
2021/09/25 09:51:44;;;;;;;9.70;7.83;;;19.00;99.90;;;;;;5036955;28;20448;-55
2021/09/25 09:54:14;;;;;;;9.43;7.73;;;19.00;99.90;;;;;;5036852;28;20898;-55
2021/09/25 09:56:43;;;;;;;13.80;9.10;;;19.00;99.90;;;;;;5036971;28;20463;-55
2021/09/25 09:59:10;;;;;;;15.53;9.47;;;19.00;99.90;;;;;;5036554;28;20514;-52
2021/09/25 10:01:38;;;;;;;11.40;9.57;;;19.00;99.90;;;;;;5036808;28;20835;-55
2021/09/25 10:04:06;;;;;;;13.17;10.07;;;19.00;99.90;;;;;;5036574;28;20484;-53
2021/09/25 10:06:35;;;;;;;11.20;9.40;;;19.00;99.90;;;;;;5036587;28;20459;-54
2021/09/25 10:09:06;;;;;;;12.73;9.63;;;19.00;99.90;;;;;;5036684;28;20484;-55
2021/09/25 10:11:35;;;;;;;11.53;9.80;;;19.00;99.90;;;;;;5036487;28;20484;-52
2021/09/25 10:14:02;;;;;;;14.67;10.00;;;19.00;99.90;;;;;;5036212;28;21154;-55
2021/09/25 10:16:30;;;;;;;15.80;9.30;;;19.00;99.90;;;;;;5036448;28;20440;-55
2021/09/25 10:18:57;;;;;;;13.17;8.97;;;19.10;99.90;;;;;;5036383;28;20502;-52
2021/09/25 10:21:26;;;;;;;20.50;10.93;;;19.10;99.90;;;;;;5036556;28;20456;-52
2021/09/25 10:23:58;;;;;;;11.50;9.47;;;19.10;99.90;;;;;;5036209;28;20440;-49
2021/09/25 10:26:26;;;;;;;12.97;11.40;;;19.10;99.90;;;;;;5036301;28;20438;-54
2021/09/25 10:28:57;;;;;;;13.93;10.43;;;19.10;99.90;;;;;;5035903;28;20545;-54
2021/09/25 10:31:23;;;;;;;14.83;8.77;;;19.20;99.90;;;;;;5036183;28;20596;-51
2021/09/25 10:34:09;;;;;;;11.17;10.03;;;19.20;99.90;;;;;;5036345;28;20448;-52
2021/09/25 10:36:38;;;;;;;11.53;9.57;;;19.30;99.90;;;;;;5035938;28;20456;-51
2021/09/25 10:39:39;;;;;;;13.23;9.70;;;19.30;99.90;;;;;;5036129;28;20909;-54
2021/09/25 10:42:12;;;;;;;12.80;9.40;;;19.30;99.90;;;;;;5036329;28;20742;-52
2021/09/25 10:44:47;;;;;;;13.40;9.70;;;19.40;99.90;;;;;;5035729;28;20488;-52
2021/09/25 10:47:16;;;;;;;12.63;10.07;;;19.60;99.90;;;;;;5035552;28;20423;-53
2021/09/25 10:49:48;;;;;;;11.67;8.90;;;19.60;99.90;;;;;;5035863;28;20905;-53
2021/09/25 10:52:19;;;;;;;11.53;8.97;;;19.70;99.90;;;;;;5035440;28;20452;-51
2021/09/25 10:54:46;;;;;;;10.63;9.00;;;19.90;99.90;;;;;;5035778;28;20819;-52
2021/09/25 10:57:18;;;;;;;10.70;8.40;;;20.00;99.90;;;;;;5035636;28;20764;-52
2021/09/25 11:03:10;;;;;;;7.40;6.50;;;20.30;99.90;;;;;;5091730;27;21049;-51
2021/09/25 11:06:03;;;;;;;11.13;6.60;;;20.40;99.90;;;;;;5091690;28;20949;-51
2021/09/25 11:08:32;;;;;;;7.93;7.13;;;20.50;99.90;;;;;;5092009;28;20442;-49
2021/09/25 11:11:07;;;;;;;7.87;7.07;;;20.60;99.90;;;;;;5091906;28;20914;-49
2021/09/25 11:14:05;;;;;;;13.53;7.30;;;20.70;99.90;;;;;;5091963;28;20490;-52
2021/09/25 11:16:43;;;;;;;9.10;6.90;;;20.80;99.90;;;;;;5091965;28;20437;-54
2021/09/25 11:19:12;;;;;;;7.83;6.60;;;20.80;99.90;;;;;;5092457;28;20433;-53
2021/09/25 11:21:38;;;;;;;8.27;7.17;;;20.70;99.90;;;;;;5091194;28;20481;-50
2021/09/25 11:24:05;;;;;;;8.17;7.30;;;20.70;99.90;;;;;;5091601;28;20445;-53
2021/09/25 11:26:35;;;;;;;8.43;7.47;;;20.80;99.90;;;;;;5091510;28;20450;-53
2021/09/25 11:29:06;;;;;;;7.50;6.77;;;20.80;99.90;;;;;;5091515;28;20438;-55
2021/09/25 11:31:33;;;;;;;8.83;7.93;;;21.00;99.90;;;;;;5091555;28;20492;-54
2021/09/25 11:34:00;;;;;;;8.63;7.43;;;21.20;99.90;;;;;;5091244;28;20444;-55
2021/09/25 11:36:29;;;;;;;6.27;5.67;;;21.40;99.90;;;;;;5091177;28;20446;-53
2021/09/25 11:38:56;;;;;;;6.60;5.97;;;21.40;99.90;;;;;;5091150;28;20438;-51
2021/09/25 11:41:23;;;;;;;8.40;6.50;;;21.30;99.90;;;;;;5091215;28;20473;-52
2021/09/25 11:43:56;;;;;;;6.13;5.50;;;21.40;99.90;;;;;;5091143;28;20816;-54
2021/09/25 11:46:22;;;;;;;6.63;6.00;;;21.30;99.90;;;;;;5091099;28;20468;-52
2021/09/25 11:48:49;;;;;;;6.47;5.83;;;21.30;99.90;;;;;;5091259;28;20445;-53
2021/09/25 11:51:22;;;;;;;6.97;6.27;;;21.20;99.90;;;;;;5090882;28;20438;-53
2021/09/25 11:53:53;;;;;;;12.20;8.10;;;21.30;99.90;;;;;;5091126;28;20521;-55
2021/09/25 11:56:26;;;;;;;8.70;6.10;;;21.40;99.90;;;;;;5091004;28;20437;-56
2021/09/25 11:58:53;;;;;;;9.07;7.10;;;21.60;99.90;;;;;;5090876;28;21048;-53
2021/09/25 12:01:19;;;;;;;6.10;5.50;;;21.80;99.90;;;;;;5090677;28;20861;-54
2021/09/25 12:03:46;;;;;;;6.13;5.53;;;21.90;99.90;;;;;;5090592;28;20457;-54
2021/09/25 12:06:13;;;;;;;5.60;5.03;;;22.00;99.90;;;;;;5090821;28;20475;-55
2021/09/25 12:08:40;;;;;;;6.50;5.90;;;22.10;99.90;;;;;;5090840;28;20445;-55
2021/09/25 12:11:10;;;;;;;7.03;5.50;;;22.10;99.90;;;;;;5090718;28;20614;-55
2021/09/25 12:13:40;;;;;;;6.17;5.57;;;22.20;99.90;;;;;;5082266;28;20481;-49
2021/09/25 12:16:10;;;;;;;6.70;6.00;;;22.20;99.90;;;;;;5076953;28;20442;-54
2021/09/25 12:18:38;;;;;;;7.60;5.57;;;22.30;99.90;;;;;;5077264;28;20466;-52
2021/09/25 12:21:06;;;;;;;8.93;4.80;;;22.50;99.90;;;;;;5076982;28;20552;-55
2021/09/25 12:23:36;;;;;;;4.90;4.40;;;22.80;99.90;;;;;;5076716;28;20449;-55
2021/09/25 12:26:04;;;;;;;4.57;4.17;;;22.90;99.90;;;;;;5076978;28;20452;-55
2021/09/25 12:28:44;;;;;;;7.43;4.60;;;22.80;99.90;;;;;;5076795;28;20507;-56
2021/09/25 12:31:15;;;;;;;4.47;4.00;;;22.80;99.90;;;;;;5076715;28;20426;-54
2021/09/25 12:33:49;;;;;;;4.50;3.83;;;22.70;99.90;;;;;;5076483;28;20454;-52
2021/09/25 12:36:17;;;;;;;4.67;4.17;;;22.60;99.90;;;;;;5076436;28;20922;-55
2021/09/25 12:38:46;;;;;;;4.20;3.80;;;22.70;99.90;;;;;;5076540;28;20451;-52
2021/09/25 12:41:14;;;;;;;4.63;4.23;;;22.60;99.90;;;;;;5076290;28;20586;-49
2021/09/25 12:43:47;;;;;;;4.90;4.43;;;22.50;99.90;;;;;;5076675;28;20477;-48
2021/09/25 12:46:22;;;;;;;7.00;5.20;;;22.30;99.90;;;;;;5076682;28;20431;-52
2021/09/25 12:49:24;;;;;;;6.97;6.13;;;22.10;99.90;;;;;;5076442;28;20503;-53